Time;durP1;ratioP1;P1;durP2;ratioP2;P2;SDS_P1;SDS_P2;PMS_P1;PMS_P2;Temp;Humidity;BMP_temperature;BMP_pressure;BME280_temperature;BME280_humidity;BME280_pressure;Samples;Min_cycle;Max_cycle;Signal;HPM_P1;HPM_P2
2021/05/01 00:01:55;;;;;;;15.08;13.48;;;;;;;11.07;80.45;98742.20;1699819;83;22391;-59
2021/05/01 00:04:22;;;;;;;17.82;15.65;;;;;;;11.05;80.34;98744.20;1696329;83;21062;-60
2021/05/01 00:06:50;;;;;;;19.12;16.77;;;;;;;11.00;80.27;98745.81;1703313;83;21021;-60
2021/05/01 00:09:19;;;;;;;20.68;18.27;;;;;;;10.95;80.08;98752.22;1709748;83;21092;-59
2021/05/01 00:11:46;;;;;;;20.75;17.25;;;;;;;10.90;79.87;98748.77;1707758;83;21068;-59
2021/05/01 00:14:15;;;;;;;19.60;16.07;;;;;;;10.84;79.64;98746.89;1694077;84;22042;-59
2021/05/01 00:16:44;;;;;;;18.90;15.48;;;;;;;10.77;79.58;98747.31;1714621;83;21152;-59
2021/05/01 00:19:12;;;;;;;16.60;14.85;;;;;;;10.72;79.49;98756.86;1696809;84;21041;-59
2021/05/01 00:21:39;;;;;;;17.32;14.93;;;;;;;10.67;79.37;98760.09;1714543;83;21614;-59
2021/05/01 00:24:08;;;;;;;14.45;12.85;;;;;;;10.63;79.19;98761.50;1720826;83;21639;-59
2021/05/01 00:26:35;;;;;;;14.50;13.20;;;;;;;10.58;79.08;98757.75;1707758;83;22300;-59
2021/05/01 00:29:03;;;;;;;15.10;13.60;;;;;;;10.51;78.74;98755.83;1704323;83;21195;-59
2021/05/01 00:31:34;;;;;;;13.65;12.35;;;;;;;10.47;78.58;98760.38;1725650;83;21397;-59
2021/05/01 00:34:03;;;;;;;11.90;10.88;;;;;;;10.40;78.38;98758.96;1685306;84;21163;-59
2021/05/01 00:36:31;;;;;;;12.07;10.90;;;;;;;10.34;78.30;98765.05;1708610;83;21129;-58
2021/05/01 00:38:59;;;;;;;12.70;11.40;;;;;;;10.30;78.20;98765.58;1668624;85;21201;-59
2021/05/01 00:41:27;;;;;;;11.28;10.18;;;;;;;10.23;77.95;98768.66;1688233;85;21128;-59
2021/05/01 00:43:55;;;;;;;12.00;10.93;;;;;;;10.15;77.97;98767.43;1720651;82;21014;-59
2021/05/01 00:46:22;;;;;;;12.20;11.10;;;;;;;10.10;78.04;98773.78;1671088;83;21195;-59
2021/05/01 00:48:51;;;;;;;12.65;11.08;;;;;;;10.05;78.10;98768.19;1699629;82;21147;-59
2021/05/01 00:51:18;;;;;;;11.93;10.82;;;;;;;9.99;78.12;98768.91;1721692;82;21368;-59
2021/05/01 00:53:47;;;;;;;12.28;11.03;;;;;;;9.93;78.10;98767.31;1665102;83;21137;-59
2021/05/01 00:56:14;;;;;;;10.63;9.48;;;;;;;9.90;78.19;98765.55;1765402;80;21070;-58
2021/05/01 00:58:42;;;;;;;9.83;9.03;;;;;;;9.87;78.24;98772.55;1778190;80;21591;-59
2021/05/01 01:01:17;;;;;;;9.33;8.53;;;;;;;9.85;78.13;98770.58;1778857;80;20979;-59
2021/05/01 01:03:42;;;;;;;10.53;9.58;;;;;;;9.82;78.07;98779.74;1760490;80;21574;-59
2021/05/01 01:06:10;;;;;;;12.15;10.45;;;;;;;9.77;77.94;98779.47;1773728;80;21167;-60
2021/05/01 01:08:37;;;;;;;12.75;10.40;;;;;;;9.73;77.88;98781.31;1777177;80;21087;-57
2021/05/01 01:11:05;;;;;;;10.72;9.73;;;;;;;9.68;77.85;98787.18;1781168;80;21078;-57
2021/05/01 01:13:32;;;;;;;10.75;9.85;;;;;;;9.62;78.03;98783.11;1776334;80;21010;-57
2021/05/01 01:15:59;;;;;;;11.50;10.40;;;;;;;9.55;78.20;98782.16;1778897;80;21897;-60
2021/05/01 01:18:27;;;;;;;10.70;9.60;;;;;;;9.50;78.28;98781.37;1778732;80;21482;-57
2021/05/01 01:20:58;;;;;;;10.50;9.53;;;;;;;9.47;78.24;98780.91;1763775;80;20928;-57
2021/05/01 01:23:24;;;;;;;12.80;11.60;;;;;;;9.41;78.20;98786.95;1777727;80;21473;-58
2021/05/01 01:25:52;;;;;;;11.95;10.75;;;;;;;9.36;78.15;98788.00;1778846;80;21126;-58
2021/05/01 01:28:20;;;;;;;10.50;9.60;;;;;;;9.28;78.20;98787.56;1778823;80;21399;-57
2021/05/01 01:30:47;;;;;;;10.72;9.73;;;;;;;9.23;78.11;98796.53;1763891;80;21069;-58
2021/05/01 01:33:14;;;;;;;16.60;11.45;;;;;;;9.20;78.04;98800.90;1778322;80;21137;-57
2021/05/01 01:35:41;;;;;;;12.73;11.53;;;;;;;9.17;78.01;98800.75;1778722;80;21350;-57
2021/05/01 01:38:09;;;;;;;13.43;11.40;;;;;;;9.08;78.73;98805.78;1778897;80;21118;-58
2021/05/01 01:40:38;;;;;;;11.88;10.75;;;;;;;8.93;79.30;98804.06;1772812;80;21176;-58
2021/05/01 01:43:06;;;;;;;10.93;9.78;;;;;;;8.84;79.61;98805.94;1767982;80;21153;-58
2021/05/01 01:45:34;;;;;;;10.65;9.38;;;;;;;8.82;79.13;98806.62;1778799;80;21659;-58
2021/05/01 01:48:01;;;;;;;11.43;10.43;;;;;;;8.83;78.74;98804.80;1778709;80;21062;-58
2021/05/01 01:50:28;;;;;;;14.93;13.62;;;;;;;8.81;78.73;98806.31;1775924;80;21148;-58
2021/05/01 01:52:56;;;;;;;14.25;12.95;;;;;;;8.75;79.16;98805.67;1772129;80;21193;-58
2021/05/01 01:55:24;;;;;;;13.00;11.50;;;;;;;8.58;79.95;98807.58;1742194;82;21182;-57
2021/05/01 01:57:51;;;;;;;12.30;10.98;;;;;;;8.47;80.48;98811.13;1742059;82;21003;-58
2021/05/01 02:00:26;;;;;;;13.45;12.05;;;;;;;8.42;80.80;98814.28;1738716;82;21164;-57
2021/05/01 02:02:54;;;;;;;11.20;10.20;;;;;;;8.41;80.60;98810.00;1732693;82;21559;-58
2021/05/01 02:05:22;;;;;;;14.00;12.13;;;;;;;8.39;80.22;98809.35;1742100;82;21364;-58
2021/05/01 02:07:53;;;;;;;10.38;9.43;;;;;;;8.36;80.39;98811.02;1741941;82;20956;-58
2021/05/01 02:10:21;;;;;;;9.25;8.40;;;;;;;8.33;80.22;98815.33;1715385;82;21191;-58
2021/05/01 02:12:48;;;;;;;9.80;8.90;;;;;;;8.32;79.96;98818.96;1724061;82;21154;-59
2021/05/01 02:15:22;;;;;;;10.18;9.28;;;;;;;8.36;79.57;98826.92;1742077;82;21197;-59
2021/05/01 02:17:53;;;;;;;13.18;11.88;;;;;;;8.41;79.24;98829.88;1742202;82;22376;-58
2021/05/01 02:20:27;;;;;;;13.30;12.20;;;;;;;8.39;79.93;98823.09;1741967;82;21200;-58
2021/05/01 02:22:56;;;;;;;16.45;14.63;;;;;;;8.28;80.65;98823.46;1744438;82;21068;-58
2021/05/01 02:25:24;;;;;;;14.68;12.37;;;;;;;8.17;81.74;98818.49;1743897;82;21074;-58
2021/05/01 02:27:52;;;;;;;11.48;10.40;;;;;;;8.07;82.57;98811.59;1746052;81;21564;-58
2021/05/01 02:30:22;;;;;;;12.53;11.43;;;;;;;8.01;82.70;98809.61;1742088;82;21399;-58
2021/05/01 02:32:50;;;;;;;12.90;11.12;;;;;;;8.00;82.43;98814.56;1741779;82;21756;-58
2021/05/01 02:35:26;;;;;;;15.00;13.55;;;;;;;8.03;82.73;98823.50;1742052;82;21162;-57
2021/05/01 02:37:54;;;;;;;;;;;;;;;8.07;83.11;98817.38;1745952;82;21601;-58
2021/05/01 02:40:21;;;;;;;13.48;12.18;;;;;;;8.07;82.81;98818.70;1707038;84;20662;-58
2021/05/01 02:42:49;;;;;;;12.90;11.70;;;;;;;8.06;83.20;98822.33;1698077;84;21616;-58
2021/05/01 02:45:18;;;;;;;12.07;10.75;;;;;;;8.07;83.36;98825.32;1699434;84;21094;-59
2021/05/01 02:47:46;;;;;;;10.50;9.38;;;;;;;8.09;82.61;98833.42;1696830;84;21154;-58
2021/05/01 02:50:14;;;;;;;13.28;9.98;;;;;;;8.11;81.94;98831.92;1687874;84;21162;-58
2021/05/01 02:52:42;;;;;;;12.98;11.78;;;;;;;8.12;81.38;98837.56;1696042;84;21147;-58
2021/05/01 02:55:13;;;;;;;14.10;12.80;;;;;;;8.13;81.70;98837.90;1735036;81;21376;-57
2021/05/01 02:57:40;;;;;;;12.23;10.82;;;;;;;8.11;81.91;98837.22;1736938;82;20996;-58
2021/05/01 03:00:12;;;;;;;11.35;10.35;;;;;;;8.08;81.94;98840.23;1736813;82;21156;-58
2021/05/01 03:02:39;;;;;;;12.37;11.18;;;;;;;8.07;81.20;98843.87;1727990;82;21584;-58
2021/05/01 03:05:08;;;;;;;13.72;12.23;;;;;;;8.05;81.35;98852.48;1736781;82;21134;-58
2021/05/01 03:07:36;;;;;;;13.38;12.13;;;;;;;8.03;81.62;98851.80;1736910;82;22260;-58
2021/05/01 03:10:07;;;;;;;12.58;11.38;;;;;;;8.06;82.09;98859.42;1736752;82;21131;-58
2021/05/01 03:12:34;;;;;;;9.73;8.83;;;;;;;8.11;82.26;98856.28;1725465;82;21080;-58
2021/05/01 03:15:04;;;;;;;14.18;12.15;;;;;;;8.17;81.66;98861.72;1736795;82;21134;-58
2021/05/01 03:17:31;;;;;;;12.23;11.03;;;;;;;8.28;81.19;98860.56;1736874;82;21154;-58
2021/05/01 03:19:59;;;;;;;14.90;12.98;;;;;;;8.36;81.02;98865.84;1736786;82;21350;-58
2021/05/01 03:22:27;;;;;;;13.15;11.88;;;;;;;8.39;81.01;98865.02;1713312;82;21170;-58
2021/05/01 03:24:55;;;;;;;14.53;12.70;;;;;;;8.38;81.09;98869.14;1736828;82;21082;-58
2021/05/01 03:27:23;;;;;;;14.53;13.00;;;;;;;8.40;81.36;98870.62;1736804;82;21109;-58
2021/05/01 03:29:51;;;;;;;12.68;11.33;;;;;;;8.43;81.49;98868.95;1720591;82;21010;-58
2021/05/01 03:32:18;;;;;;;15.10;12.53;;;;;;;8.49;81.65;98867.45;1721628;82;22280;-58
2021/05/01 03:34:46;;;;;;;15.50;12.78;;;;;;;8.62;81.68;98874.36;1736799;82;21088;-58
2021/05/01 03:37:14;;;;;;;15.00;13.50;;;;;;;8.72;81.16;98877.62;1736843;82;21157;-57
2021/05/01 03:39:41;;;;;;;14.05;12.63;;;;;;;8.77;80.96;98869.14;1739073;82;21028;-58
2021/05/01 03:42:09;;;;;;;14.68;12.28;;;;;;;8.84;80.90;98867.47;1729153;82;21130;-58
2021/05/01 03:44:36;;;;;;;17.62;11.33;;;;;;;8.90;80.14;98860.95;1736737;82;21357;-60
2021/05/01 03:47:04;;;;;;;11.35;10.23;;;;;;;8.97;79.52;98859.24;1736716;82;21023;-58
2021/05/01 03:49:32;;;;;;;12.90;11.57;;;;;;;9.06;78.97;98866.16;1735730;82;21055;-58
2021/05/01 03:51:59;;;;;;;13.62;12.30;;;;;;;9.19;78.40;98862.92;1693134;84;21174;-57
2021/05/01 03:54:27;;;;;;;15.80;11.73;;;;;;;9.40;77.84;98864.94;1694176;83;21126;-57
2021/05/01 03:56:54;;;;;;;16.85;11.35;;;;;;;9.62;77.31;98866.23;1721757;83;21572;-58
2021/05/01 03:59:21;;;;;;;11.73;10.65;;;;;;;9.88;76.50;98861.36;1740670;82;21166;-58
2021/05/01 04:01:50;;;;;;;11.45;10.20;;;;;;;10.16;75.93;98862.95;1738733;82;21561;-58
2021/05/01 04:04:19;;;;;;;11.95;10.80;;;;;;;10.48;75.07;98869.75;1739684;82;21176;-58
2021/05/01 04:06:49;;;;;;;15.93;12.23;;;;;;;10.78;73.96;98875.34;1739752;82;21627;-58
2021/05/01 04:09:17;;;;;;;12.78;11.12;;;;;;;11.04;73.28;98871.66;1739056;82;21393;-58
2021/05/01 04:11:44;;;;;;;13.50;10.78;;;;;;;11.32;72.96;98870.42;1737743;81;21092;-58
2021/05/01 04:14:12;;;;;;;15.18;11.43;;;;;;;11.62;71.86;98866.63;1752964;81;21167;-58
2021/05/01 04:16:40;;;;;;;15.45;11.53;;;;;;;11.97;71.14;98862.71;1742645;81;21115;-57
2021/05/01 04:19:07;;;;;;;14.38;10.25;;;;;;;12.37;70.34;98862.80;1733368;81;21140;-58
2021/05/01 04:21:35;;;;;;;11.30;9.55;;;;;;;12.78;69.37;98861.97;1750664;81;23584;-57
2021/05/01 04:24:04;;;;;;;9.80;9.00;;;;;;;13.17;68.29;98871.48;1749640;81;21153;-58
2021/05/01 04:26:31;;;;;;;10.30;8.83;;;;;;;13.52;66.81;98865.50;1749066;81;21560;-58
2021/05/01 04:28:59;;;;;;;10.50;9.55;;;;;;;13.85;65.56;98866.34;1738782;81;21191;-59
2021/05/01 04:31:27;;;;;;;10.25;9.33;;;;;;;14.18;64.57;98871.15;1749947;81;21054;-59
2021/05/01 04:33:55;;;;;;;11.30;10.20;;;;;;;14.53;63.36;98877.60;1749974;81;21354;-59
2021/05/01 04:36:22;;;;;;;11.75;10.35;;;;;;;14.81;62.56;98877.62;1749823;81;21050;-58
2021/05/01 04:38:50;;;;;;;10.75;9.85;;;;;;;15.11;61.85;98881.94;1747985;81;21007;-59
2021/05/01 04:41:17;;;;;;;11.57;10.30;;;;;;;15.43;61.14;98875.55;1749904;81;20948;-58
2021/05/01 04:43:46;;;;;;;10.43;9.45;;;;;;;15.80;60.26;98881.14;1749954;81;20928;-59
2021/05/01 04:46:15;;;;;;;11.60;10.50;;;;;;;16.18;58.70;98874.30;1750037;81;21188;-59
2021/05/01 04:48:43;;;;;;;11.05;9.43;;;;;;;16.47;57.72;98868.24;1734831;81;21021;-59
2021/05/01 04:51:11;;;;;;;12.10;10.88;;;;;;;16.76;56.37;98866.20;1740622;81;21062;-59
2021/05/01 04:53:38;;;;;;;11.75;10.75;;;;;;;17.09;55.87;98860.41;1749204;81;21161;-59
2021/05/01 04:56:06;;;;;;;9.10;7.78;;;;;;;17.43;55.13;98854.87;1738252;82;21053;-59
2021/05/01 04:58:33;;;;;;;7.72;7.12;;;;;;;17.80;48.47;98852.38;1736079;82;22016;-59
2021/05/01 05:01:00;;;;;;;6.28;5.80;;;;;;;17.80;48.47;98852.38;1754727;80;20990;-59
2021/05/01 05:03:28;;;;;;;7.28;6.60;;;;;;;17.81;46.99;98852.64;1726683;82;21179;-59
2021/05/01 05:05:56;;;;;;;7.22;6.62;;;;;;;17.81;46.99;98852.64;1707296;83;21001;-59
2021/05/01 05:08:24;;;;;;;7.62;6.90;;;;;;;17.77;45.49;98850.14;1757493;81;21117;-59
2021/05/01 05:10:52;;;;;;;7.40;6.80;;;;;;;17.57;45.56;98845.60;1768871;80;21376;-58
2021/05/01 05:13:24;;;;;;;7.47;6.80;;;;;;;17.48;45.92;98850.45;1768077;80;21153;-59
2021/05/01 05:15:52;;;;;;;7.03;6.08;;;;;;;17.45;45.54;98848.21;1758656;81;21159;-58
2021/05/01 05:18:19;;;;;;;6.92;6.42;;;;;;;17.53;45.73;98835.81;1742519;80;21140;-59
2021/05/01 05:20:47;;;;;;;6.60;6.10;;;;;;;17.66;44.99;98836.96;1755781;80;20996;-59
2021/05/01 05:23:15;;;;;;;8.25;7.55;;;;;;;17.70;44.79;98831.95;1768214;81;21197;-59
2021/05/01 05:25:42;;;;;;;9.03;8.13;;;;;;;17.78;45.10;98822.99;1765520;80;21116;-59
2021/05/01 05:28:10;;;;;;;6.90;6.37;;;;;;;17.97;45.54;98820.20;1764050;80;21079;-59
2021/05/01 05:30:37;;;;;;;7.28;6.62;;;;;;;17.97;45.54;98820.20;1760737;80;21129;-60
2021/05/01 05:33:05;;;;;;;7.35;6.65;;;;;;;18.07;44.75;98819.91;1755030;81;20952;-59
2021/05/01 05:35:32;;;;;;;5.83;5.42;;;;;;;17.92;44.20;98816.05;1768086;81;21499;-60
2021/05/01 05:38:03;;;;;;;6.80;5.47;;;;;;;17.88;43.89;98817.85;1746578;80;21165;-60
2021/05/01 05:40:32;;;;;;;6.92;6.25;;;;;;;17.92;43.13;98816.05;1764007;80;21033;-59
2021/05/01 05:43:00;;;;;;;5.50;5.05;;;;;;;18.03;42.79;98829.52;1754236;80;21132;-59
2021/05/01 05:45:33;;;;;;;6.17;5.12;;;;;;;18.20;42.76;98832.31;1735272;81;20927;-60
2021/05/01 05:47:57;;;;;;;6.30;5.83;;;;;;;18.43;41.62;98826.38;1764403;81;22106;-60
2021/05/01 05:50:25;;;;;;;9.75;8.80;;;;;;;18.47;42.10;98832.16;1756512;81;20934;-60
2021/05/01 05:52:53;;;;;;;7.00;6.30;;;;;;;18.57;42.12;98836.94;1719479;82;21141;-62
2021/05/01 05:55:21;;;;;;;10.28;6.87;;;;;;;18.70;42.10;98847.45;1694911;84;21120;-60
2021/05/01 05:57:51;;;;;;;6.97;6.22;;;;;;;18.73;41.25;98853.72;1725783;82;21138;-60
2021/05/01 06:00:20;;;;;;;7.62;6.92;;;;;;;18.77;41.04;98858.39;1733822;82;22159;-63
2021/05/01 06:02:48;;;;;;;9.30;7.75;;;;;;;18.73;40.88;98859.11;1713803;82;21650;-58
2021/05/01 06:05:22;;;;;;;8.23;7.53;;;;;;;18.58;41.03;98870.91;1664689;85;21150;-57
2021/05/01 06:07:52;;;;;;;13.38;8.03;;;;;;;18.39;41.83;98867.50;1683284;84;21166;-57
2021/05/01 06:10:19;;;;;;;9.05;7.83;;;;;;;18.21;42.30;98869.78;1754826;80;21108;-57
2021/05/01 06:12:46;;;;;;;10.30;7.83;;;;;;;18.20;42.77;98876.21;1751675;80;21381;-56
2021/05/01 06:15:16;;;;;;;11.70;7.80;;;;;;;18.41;42.96;98881.53;1752276;81;21017;-59
2021/05/01 06:17:45;;;;;;;10.53;7.22;;;;;;;18.64;42.43;98881.55;1755122;80;21007;-59
2021/05/01 06:20:14;;;;;;;11.78;7.03;;;;;;;18.74;41.92;98879.63;1754963;80;21033;-61
2021/05/01 06:22:41;;;;;;;9.33;7.10;;;;;;;18.83;41.76;98882.22;1755872;80;21181;-58
2021/05/01 06:25:11;;;;;;;11.50;6.97;;;;;;;19.00;41.28;98873.19;1756638;81;21312;-59
2021/05/01 06:27:39;;;;;;;14.60;6.70;;;;;;;19.00;40.54;98873.70;1750614;80;21157;-58
2021/05/01 06:30:10;;;;;;;12.95;6.60;;;;;;;19.08;40.65;98877.38;1766559;80;21160;-59
2021/05/01 06:32:38;;;;;;;9.28;5.80;;;;;;;19.08;40.43;98883.56;1760775;80;21147;-59
2021/05/01 06:35:07;;;;;;;7.58;6.47;;;;;;;19.09;40.22;98881.69;1770472;80;21102;-57
2021/05/01 06:37:35;;;;;;;7.78;6.35;;;;;;;19.05;42.07;98872.45;1761567;80;21176;-63
2021/05/01 06:40:09;;;;;;;8.93;6.10;;;;;;;19.27;41.35;98876.12;1768007;80;21123;-62
2021/05/01 06:42:35;;;;;;;7.62;6.22;;;;;;;19.53;40.13;98882.31;1768317;80;21150;-62
2021/05/01 06:45:13;;;;;;;9.55;6.05;;;;;;;19.69;40.01;98884.23;1757251;80;21483;-63
2021/05/01 06:47:54;;;;;;;7.15;6.15;;;;;;;19.84;39.30;98881.52;1767396;80;21161;-62
2021/05/01 06:50:26;;;;;;;6.92;6.22;;;;;;;19.93;38.44;98874.11;1762222;80;21360;-59
2021/05/01 06:52:54;;;;;;;8.75;5.92;;;;;;;19.95;38.82;98878.73;1745689;80;20950;-60
2021/05/01 06:55:21;;;;;;;6.95;6.42;;;;;;;20.17;39.27;98882.34;1752504;80;21027;-60
2021/05/01 06:57:51;;;;;;;6.97;6.42;;;;;;;20.51;37.76;98885.03;1722459;82;21206;-59
2021/05/01 07:00:21;;;;;;;7.45;6.37;;;;;;;20.56;37.57;98879.70;1740232;82;21170;-64
2021/05/01 07:02:52;;;;;;;7.80;7.00;;;;;;;20.66;37.69;98889.30;1738693;82;21366;-61
2021/05/01 07:05:22;;;;;;;6.55;6.05;;;;;;;20.86;37.14;98880.10;1733404;82;21184;-64
2021/05/01 07:07:49;;;;;;;7.70;7.10;;;;;;;20.99;37.28;98882.43;1714610;82;21120;-63
2021/05/01 07:10:18;;;;;;;9.28;8.43;;;;;;;21.34;37.00;98885.61;1738410;82;20960;-62
2021/05/01 07:12:46;;;;;;;9.08;8.45;;;;;;;21.61;36.20;98874.80;1726507;82;21162;-61
2021/05/01 07:15:18;;;;;;;9.38;8.68;;;;;;;21.80;35.16;98872.52;1718214;82;21435;-64
2021/05/01 07:17:51;;;;;;;9.20;8.35;;;;;;;21.95;34.50;98877.56;1722837;81;21144;-57
2021/05/01 07:20:20;;;;;;;8.68;8.00;;;;;;;22.04;34.37;98872.49;1737058;82;21055;-60
2021/05/01 07:22:51;;;;;;;10.03;9.28;;;;;;;22.04;35.04;98871.96;1714638;82;21074;-57
2021/05/01 07:25:18;;;;;;;9.50;8.60;;;;;;;22.05;34.71;98869.55;1731524;82;21141;-57
2021/05/01 07:28:04;;;;;;;8.50;7.90;;;;;;;22.17;34.20;98871.23;1733665;81;22022;-61
2021/05/01 07:30:41;;;;;;;7.22;6.70;;;;;;;22.31;33.44;98862.95;1729352;81;21563;-61
2021/05/01 07:33:20;;;;;;;7.67;7.17;;;;;;;22.28;33.00;98864.82;1705763;82;21622;-63
2021/05/01 07:35:50;;;;;;;6.67;5.97;;;;;;;22.08;33.30;98860.09;1731334;82;21146;-59
2021/05/01 07:38:17;;;;;;;6.97;6.28;;;;;;;22.01;33.41;98863.00;1735810;81;21112;-57
2021/05/01 07:40:47;;;;;;;7.15;6.47;;;;;;;21.82;33.37;98857.64;1711339;82;21202;-57
2021/05/01 07:43:16;;;;;;;5.97;5.47;;;;;;;21.75;34.13;98860.29;1741248;82;21193;-60
2021/05/01 07:45:46;;;;;;;8.88;6.62;;;;;;;21.73;34.41;98859.20;1716593;82;21010;-59
2021/05/01 07:48:15;;;;;;;8.25;6.80;;;;;;;21.66;33.99;98857.78;1742165;82;21126;-67
2021/05/01 07:50:45;;;;;;;6.75;6.25;;;;;;;21.62;34.09;98857.47;1739551;81;21624;-60
2021/05/01 07:53:13;;;;;;;8.15;7.45;;;;;;;21.68;34.36;98862.40;1683076;82;21536;-58
2021/05/01 07:55:42;;;;;;;7.87;7.28;;;;;;;21.56;34.43;98855.81;1722748;80;21008;-59
2021/05/01 07:58:09;;;;;;;6.97;6.28;;;;;;;21.49;34.63;98861.41;1719535;82;20988;-59
2021/05/01 08:00:37;;;;;;;7.12;6.62;;;;;;;21.48;35.13;98854.35;1734871;82;21086;-60
2021/05/01 08:03:05;;;;;;;6.47;5.97;;;;;;;21.76;35.02;98852.46;1733016;82;20959;-56
2021/05/01 08:05:33;;;;;;;11.12;6.83;;;;;;;22.11;34.88;98852.23;1740843;82;21349;-64
2021/05/01 08:08:00;;;;;;;6.08;5.58;;;;;;;22.46;34.77;98845.43;1731328;82;21669;-55
2021/05/01 08:10:27;;;;;;;7.70;7.00;;;;;;;22.71;34.94;98848.30;1742255;82;20952;-71
2021/05/01 08:12:56;;;;;;;9.65;6.72;;;;;;;22.77;33.56;98847.26;1728130;82;21515;-57
2021/05/01 08:15:28;;;;;;;7.28;6.78;;;;;;;22.65;33.82;98842.59;1742843;82;21123;-67
2021/05/01 08:17:53;;;;;;;6.70;6.20;;;;;;;22.63;34.10;98843.41;1743831;80;21588;-54
2021/05/01 08:20:21;;;;;;;6.28;5.72;;;;;;;22.71;34.24;98843.70;1741359;82;21157;-54
2021/05/01 08:22:48;;;;;;;6.35;5.75;;;;;;;22.78;34.32;98839.41;1742196;82;21766;-65
2021/05/01 08:25:16;;;;;;;7.15;6.53;;;;;;;23.00;34.12;98843.28;1742109;82;21154;-65
2021/05/01 08:27:43;;;;;;;5.72;5.33;;;;;;;23.12;34.02;98840.63;1726441;82;21169;-70
2021/05/01 08:30:15;;;;;;;6.53;5.40;;;;;;;23.28;33.77;98832.78;1742925;82;21322;-66
2021/05/01 08:32:43;;;;;;;6.75;6.15;;;;;;;23.48;33.08;98832.59;1735149;82;21219;-67
2021/05/01 08:35:12;;;;;;;6.42;5.83;;;;;;;23.48;33.21;98840.20;1723849;82;21568;-72
2021/05/01 08:37:40;;;;;;;6.97;5.78;;;;;;;23.38;32.93;98835.30;1742043;82;21612;-66
2021/05/01 08:40:09;;;;;;;6.30;4.92;;;;;;;23.44;33.56;98833.66;1742125;82;21599;-65
2021/05/01 08:42:45;;;;;;;6.22;5.72;;;;;;;23.75;33.16;98825.83;1741979;82;21572;-66
2021/05/01 08:45:16;;;;;;;5.62;5.12;;;;;;;23.81;33.04;98826.11;1679196;84;21136;-66
2021/05/01 08:47:46;;;;;;;9.03;5.72;;;;;;;23.73;33.24;98825.83;1680462;84;21098;-64
2021/05/01 08:50:31;;;;;;;6.67;4.78;;;;;;;23.63;33.37;98824.47;1671430;84;21668;-74
2021/05/01 08:53:00;;;;;;;6.37;5.55;;;;;;;23.65;33.96;98832.61;1655642;84;21173;-70
2021/05/01 08:55:32;;;;;;;6.42;5.90;;;;;;;23.92;33.67;98820.14;1712411;81;21381;-63
2021/05/01 08:58:00;;;;;;;5.40;4.90;;;;;;;24.21;33.36;98826.67;1712554;82;21144;-65
2021/05/01 09:00:27;;;;;;;5.92;5.33;;;;;;;24.27;32.55;98813.32;1712566;82;21520;-65
2021/05/01 09:02:56;;;;;;;5.58;5.08;;;;;;;24.22;32.39;98819.34;1692707;82;20971;-65
2021/05/01 09:05:25;;;;;;;5.80;5.22;;;;;;;23.93;32.89;98817.70;1712531;82;21123;-66
2021/05/01 09:07:53;;;;;;;6.12;5.53;;;;;;;23.92;33.24;98818.78;1710112;82;21177;-69
2021/05/01 09:10:20;;;;;;;5.45;5.03;;;;;;;24.05;33.09;98815.52;1682556;83;21169;-73
2021/05/01 09:12:48;;;;;;;5.72;5.15;;;;;;;23.98;33.46;98812.80;1714794;82;21011;-58
2021/05/01 09:15:24;;;;;;;5.80;5.28;;;;;;;23.85;33.71;98814.17;1712661;82;21046;-60
2021/05/01 09:17:59;;;;;;;4.92;4.53;;;;;;;23.72;33.70;98803.31;1709105;82;21189;-68
2021/05/01 09:20:26;;;;;;;5.78;5.05;;;;;;;23.80;34.25;98801.38;1725286;82;21395;-68
2021/05/01 09:22:59;;;;;;;6.22;5.62;;;;;;;24.11;33.87;98793.27;1708872;84;21136;-62
2021/05/01 09:25:58;;;;;;;8.73;5.12;;;;;;;24.22;33.58;98794.88;1699574;84;21123;-64
2021/05/01 09:28:27;;;;;;;5.35;4.85;;;;;;;24.27;33.25;98786.72;1743952;82;21130;-70
2021/05/01 09:31:08;;;;;;;5.87;5.17;;;;;;;24.49;33.19;98781.20;1711284;82;21130;-69
2021/05/01 09:33:39;;;;;;;6.12;4.95;;;;;;;24.65;32.79;98781.97;1680105;85;21611;-62
2021/05/01 09:36:17;;;;;;;5.20;4.80;;;;;;;24.69;32.77;98766.70;1707194;84;21132;-67
2021/05/01 09:38:49;;;;;;;5.03;4.62;;;;;;;24.90;32.79;98767.45;1650408;85;21037;-66
2021/05/01 09:41:25;;;;;;;4.83;4.47;;;;;;;25.05;32.59;98763.31;1677538;84;21601;-64
2021/05/01 09:44:10;;;;;;;6.12;4.45;;;;;;;25.40;31.89;98763.61;1688139;84;21166;-63
2021/05/01 09:46:43;;;;;;;5.80;4.90;;;;;;;25.73;31.07;98762.28;1697141;82;21244;-57
2021/05/01 09:49:29;;;;;;;8.18;4.83;;;;;;;26.07;31.37;98756.00;1737046;82;21822;-55
2021/05/01 09:52:05;;;;;;;6.42;4.80;;;;;;;26.14;31.12;98762.77;1740194;81;21123;-59
2021/05/01 09:54:39;;;;;;;3.90;3.60;;;;;;;26.24;30.99;98759.94;1739876;81;21631;-55
2021/05/01 09:57:18;;;;;;;5.12;3.70;;;;;;;26.29;30.91;98755.78;1736532;80;21653;-61
2021/05/01 09:59:50;;;;;;;4.05;3.75;;;;;;;26.54;29.51;98762.84;1749387;80;21209;-59
2021/05/01 10:02:20;;;;;;;7.17;4.47;;;;;;;26.79;28.79;98761.77;1729998;80;21116;-60
2021/05/01 10:05:11;;;;;;;5.00;3.58;;;;;;;26.78;28.78;98751.41;1750344;80;21551;-62
2021/05/01 10:07:50;;;;;;;6.67;3.67;;;;;;;26.83;28.36;98740.41;1739156;80;21570;-64
2021/05/01 10:10:17;;;;;;;4.72;3.80;;;;;;;26.73;27.90;98747.89;1743582;80;21570;-65
2021/05/01 10:12:45;;;;;;;5.05;3.42;;;;;;;26.65;27.09;98738.44;1742786;80;21820;-63
2021/05/01 10:17:37;;;;;;;4.67;4.05;;;;;;;26.63;27.69;98750.20;1837210;76;23382;-68
2021/05/01 10:20:07;;;;;;;4.95;3.83;;;;;;;26.42;27.70;98737.09;1806986;77;20986;-67
2021/05/01 10:22:42;;;;;;;5.05;4.12;;;;;;;26.05;28.47;98739.10;1750622;81;22295;-67
2021/05/01 10:25:29;;;;;;;4.55;4.15;;;;;;;25.69;28.58;98742.17;1752353;81;20984;-68
2021/05/01 10:28:13;;;;;;;5.70;4.00;;;;;;;25.18;29.64;98728.67;1748554;79;20956;-70
2021/05/01 10:30:58;;;;;;;12.07;4.50;;;;;;;24.90;30.32;98721.20;1713581;80;21061;-54
2021/05/01 10:33:34;;;;;;;4.70;3.55;;;;;;;24.69;31.73;98733.28;1748951;80;21019;-54
2021/05/01 10:36:16;;;;;;;3.85;3.55;;;;;;;24.34;32.27;98725.54;1747979;80;21345;-64
2021/05/01 10:38:43;;;;;;;4.85;4.05;;;;;;;24.23;31.83;98725.30;1738888;80;21611;-68
2021/05/01 10:41:17;;;;;;;5.62;3.35;;;;;;;24.12;31.99;98727.77;1769853;79;21011;-64
2021/05/01 10:43:52;;;;;;;4.50;3.80;;;;;;;24.17;31.69;98729.11;1749649;80;21170;-74
2021/05/01 10:46:25;;;;;;;;;;;;;;;24.01;31.18;98722.62;1748876;79;21553;-67
2021/05/01 10:48:55;;;;;;;3.83;3.52;;;;;;;23.77;31.67;98722.38;1759478;80;21371;-68
2021/05/01 10:51:25;;;;;;;4.87;3.33;;;;;;;23.79;32.08;98729.70;1749856;80;20960;-67
2021/05/01 10:54:18;;;;;;;4.97;3.67;;;;;;;23.81;32.42;98729.70;1748800;80;20925;-63
2021/05/01 10:59:09;;;;;;;3.40;3.15;;;;;;;23.66;33.17;98728.91;1788455;77;22808;-63
2021/05/01 11:01:46;;;;;;;4.42;3.50;;;;;;;23.66;33.77;98722.12;1756673;78;21052;-59
2021/05/01 11:04:08;;;;;;;8.70;3.80;;;;;;;23.63;33.39;98722.12;1751419;78;21387;-63
2021/05/01 11:06:50;;;;;;;4.87;3.52;;;;;;;23.44;32.98;98724.31;1743861;80;20997;-61
2021/05/01 11:09:43;;;;;;;4.25;3.20;;;;;;;23.16;33.08;98718.27;1748305;79;21013;-59
2021/05/01 11:12:20;;;;;;;4.08;3.40;;;;;;;22.90;33.43;98722.03;1730056;82;21067;-66
2021/05/01 11:15:03;;;;;;;3.55;3.17;;;;;;;22.83;33.78;98710.63;1732825;81;21025;-64
2021/05/01 11:17:41;;;;;;;3.67;3.37;;;;;;;22.93;34.19;98715.25;1703983;81;22322;-64
2021/05/01 11:20:15;;;;;;;3.87;3.58;;;;;;;23.07;33.75;98710.38;1710535;81;21020;-67
2021/05/01 11:22:47;;;;;;;6.60;3.75;;;;;;;23.22;33.46;98705.00;1698756;83;20950;-65
2021/05/01 11:25:17;;;;;;;3.95;3.42;;;;;;;23.39;33.07;98697.17;1698700;83;21181;-64
2021/05/01 11:27:46;;;;;;;3.90;3.50;;;;;;;23.42;33.13;98704.20;1698751;83;20953;-66
2021/05/01 11:30:17;;;;;;;3.22;2.87;;;;;;;23.33;32.80;98697.11;1698840;83;21382;-66
2021/05/01 11:32:44;;;;;;;3.50;2.85;;;;;;;23.24;33.00;98695.22;1698730;83;21110;-68
2021/05/01 11:35:17;;;;;;;3.22;3.02;;;;;;;23.16;32.97;98688.97;1671270;84;20944;-66
2021/05/01 11:37:57;;;;;;;3.60;3.30;;;;;;;23.06;32.96;98686.25;1698616;83;21157;-64
2021/05/01 11:40:30;;;;;;;4.28;3.37;;;;;;;22.93;33.18;98680.81;1701180;83;21536;-66
2021/05/01 11:42:58;;;;;;;3.90;3.00;;;;;;;22.83;33.27;98684.88;1712027;81;21484;-64
2021/05/01 11:45:46;;;;;;;5.37;4.03;;;;;;;22.82;33.33;98668.85;1704917;81;21086;-64
2021/05/01 11:48:30;;;;;;;3.12;2.85;;;;;;;22.74;33.55;98664.23;1707250;81;21137;-65